sensor_id;sensor_type;location;lat;lon;timestamp;temperature;humidity
8400;DHT22;4237;47.030;15.396;2024-03-23T00:54:40;8.00;99.90
8400;DHT22;4237;47.030;15.396;2024-03-23T00:57:08;7.90;99.90
8400;DHT22;4237;47.030;15.396;2024-03-23T00:59:37;7.90;99.90
8400;DHT22;4237;47.030;15.396;2024-03-23T01:02:05;7.80;99.90
8400;DHT22;4237;47.030;15.396;2024-03-23T01:04:34;7.70;99.90
8400;DHT22;4237;47.030;15.396;2024-03-23T01:07:03;7.60;99.90
8400;DHT22;4237;47.030;15.396;2024-03-23T01:09:31;7.60;99.90
8400;DHT22;4237;47.030;15.396;2024-03-23T01:12:00;7.50;99.90
8400;DHT22;4237;47.030;15.396;2024-03-23T01:14:29;7.50;99.90
8400;DHT22;4237;47.030;15.396;2024-03-23T01:16:57;7.40;99.90
8400;DHT22;4237;47.030;15.396;2024-03-23T01:19:26;7.30;99.90
8400;DHT22;4237;47.030;15.396;2024-03-23T01:21:54;7.20;99.90
8400;DHT22;4237;47.030;15.396;2024-03-23T01:24:23;7.20;99.90
8400;DHT22;4237;47.030;15.396;2024-03-23T01:26:51;7.10;99.90
8400;DHT22;4237;47.030;15.396;2024-03-23T01:29:20;7.00;99.90
8400;DHT22;4237;47.030;15.396;2024-03-23T01:31:49;6.90;99.90
8400;DHT22;4237;47.030;15.396;2024-03-23T01:34:17;6.90;99.90
8400;DHT22;4237;47.030;15.396;2024-03-23T01:36:47;6.90;99.90
8400;DHT22;4237;47.030;15.396;2024-03-23T01:39:15;6.80;99.90
8400;DHT22;4237;47.030;15.396;2024-03-23T01:41:44;6.80;99.90
8400;DHT22;4237;47.030;15.396;2024-03-23T01:44:12;6.70;99.90
8400;DHT22;4237;47.030;15.396;2024-03-23T01:46:41;6.70;99.90
8400;DHT22;4237;47.030;15.396;2024-03-23T01:49:10;6.70;99.90
8400;DHT22;4237;47.030;15.396;2024-03-23T01:51:39;7.60;99.90
8400;DHT22;4237;47.030;15.396;2024-03-23T01:54:07;6.60;99.90
8400;DHT22;4237;47.030;15.396;2024-03-23T01:56:36;6.50;99.90
8400;DHT22;4237;47.030;15.396;2024-03-23T01:59:05;6.50;99.90
8400;DHT22;4237;47.030;15.396;2024-03-23T02:01:37;6.50;99.90
8400;DHT22;4237;47.030;15.396;2024-03-23T02:04:05;6.50;99.90
8400;DHT22;4237;47.030;15.396;2024-03-23T02:06:34;6.50;99.90
8400;DHT22;4237;47.030;15.396;2024-03-23T02:09:03;6.40;99.90
8400;DHT22;4237;47.030;15.396;2024-03-23T02:11:31;6.30;99.90
8400;DHT22;4237;47.030;15.396;2024-03-23T02:14:00;6.30;99.90
8400;DHT22;4237;47.030;15.396;2024-03-23T02:16:29;6.40;99.90
8400;DHT22;4237;47.030;15.396;2024-03-23T02:18:57;6.40;99.90
8400;DHT22;4237;47.030;15.396;2024-03-23T02:21:26;6.30;99.90
8400;DHT22;4237;47.030;15.396;2024-03-23T02:23:56;6.30;99.90
8400;DHT22;4237;47.030;15.396;2024-03-23T02:26:24;6.30;99.90
8400;DHT22;4237;47.030;15.396;2024-03-23T02:28:53;6.40;99.90
8400;DHT22;4237;47.030;15.396;2024-03-23T02:31:21;6.30;99.90
8400;DHT22;4237;47.030;15.396;2024-03-23T02:33:50;6.30;99.90
8400;DHT22;4237;47.030;15.396;2024-03-23T02:36:18;6.20;99.90
8400;DHT22;4237;47.030;15.396;2024-03-23T02:38:48;6.20;99.90
8400;DHT22;4237;47.030;15.396;2024-03-23T02:41:17;6.20;99.90
8400;DHT22;4237;47.030;15.396;2024-03-23T02:43:53;6.10;99.90
8400;DHT22;4237;47.030;15.396;2024-03-23T02:46:18;6.10;99.90
8400;DHT22;4237;47.030;15.396;2024-03-23T02:48:49;6.10;99.90
8400;DHT22;4237;47.030;15.396;2024-03-23T02:51:17;6.10;99.90
8400;DHT22;4237;47.030;15.396;2024-03-23T02:53:46;6.10;99.90
8400;DHT22;4237;47.030;15.396;2024-03-23T02:56:14;6.10;99.90
8400;DHT22;4237;47.030;15.396;2024-03-23T02:58:44;6.00;99.90
8400;DHT22;4237;47.030;15.396;2024-03-23T03:01:12;6.00;99.90
8400;DHT22;4237;47.030;15.396;2024-03-23T03:03:41;5.90;99.90
8400;DHT22;4237;47.030;15.396;2024-03-23T03:06:09;5.80;99.90
8400;DHT22;4237;47.030;15.396;2024-03-23T03:08:38;5.70;99.90
8400;DHT22;4237;47.030;15.396;2024-03-23T03:11:06;5.60;99.90
8400;DHT22;4237;47.030;15.396;2024-03-23T03:13:35;5.60;99.90
8400;DHT22;4237;47.030;15.396;2024-03-23T03:16:08;5.50;99.90
8400;DHT22;4237;47.030;15.396;2024-03-23T03:18:35;5.40;99.90
8400;DHT22;4237;47.030;15.396;2024-03-23T03:21:04;5.30;99.90
8400;DHT22;4237;47.030;15.396;2024-03-23T03:23:34;5.30;99.90
8400;DHT22;4237;47.030;15.396;2024-03-23T03:26:03;5.30;99.90
8400;DHT22;4237;47.030;15.396;2024-03-23T03:28:32;5.20;99.90
8400;DHT22;4237;47.030;15.396;2024-03-23T03:31:01;5.20;99.90
8400;DHT22;4237;47.030;15.396;2024-03-23T03:33:29;5.10;99.90
8400;DHT22;4237;47.030;15.396;2024-03-23T03:35:58;5.00;99.90
8400;DHT22;4237;47.030;15.396;2024-03-23T03:38:26;5.00;99.90
8400;DHT22;4237;47.030;15.396;2024-03-23T03:40:55;4.90;99.90
8400;DHT22;4237;47.030;15.396;2024-03-23T03:43:23;5.00;99.90
8400;DHT22;4237;47.030;15.396;2024-03-23T03:45:53;4.90;99.90
8400;DHT22;4237;47.030;15.396;2024-03-23T03:48:21;5.00;99.90
8400;DHT22;4237;47.030;15.396;2024-03-23T03:50:50;5.00;99.90
8400;DHT22;4237;47.030;15.396;2024-03-23T03:53:19;5.10;99.90
8400;DHT22;4237;47.030;15.396;2024-03-23T03:55:48;5.10;99.90
8400;DHT22;4237;47.030;15.396;2024-03-23T03:58:16;5.20;99.90
8400;DHT22;4237;47.030;15.396;2024-03-23T04:00:45;5.20;99.90
8400;DHT22;4237;47.030;15.396;2024-03-23T04:03:13;5.30;99.90
8400;DHT22;4237;47.030;15.396;2024-03-23T04:05:42;5.30;99.90
8400;DHT22;4237;47.030;15.396;2024-03-23T04:08:10;5.30;99.90
8400;DHT22;4237;47.030;15.396;2024-03-23T04:10:39;5.40;99.90
8400;DHT22;4237;47.030;15.396;2024-03-23T04:13:08;5.30;99.90
8400;DHT22;4237;47.030;15.396;2024-03-23T04:15:36;5.40;99.90
8400;DHT22;4237;47.030;15.396;2024-03-23T04:18:05;5.40;99.90
8400;DHT22;4237;47.030;15.396;2024-03-23T04:20:33;5.40;99.90
8400;DHT22;4237;47.030;15.396;2024-03-23T04:23:02;5.40;99.90
8400;DHT22;4237;47.030;15.396;2024-03-23T04:25:31;5.40;99.90
8400;DHT22;4237;47.030;15.396;2024-03-23T04:27:59;5.50;99.90
8400;DHT22;4237;47.030;15.396;2024-03-23T04:30:28;5.50;99.90
8400;DHT22;4237;47.030;15.396;2024-03-23T04:32:56;5.50;99.90
8400;DHT22;4237;47.030;15.396;2024-03-23T04:35:25;5.40;99.90
8400;DHT22;4237;47.030;15.396;2024-03-23T04:37:54;6.80;99.90
8400;DHT22;4237;47.030;15.396;2024-03-23T04:40:26;5.40;99.90
8400;DHT22;4237;47.030;15.396;2024-03-23T04:42:55;5.50;99.90
8400;DHT22;4237;47.030;15.396;2024-03-23T04:45:23;5.40;99.90
8400;DHT22;4237;47.030;15.396;2024-03-23T04:47:52;5.40;99.90
8400;DHT22;4237;47.030;15.396;2024-03-23T04:50:21;5.50;99.90
8400;DHT22;4237;47.030;15.396;2024-03-23T04:52:49;5.50;99.90
8400;DHT22;4237;47.030;15.396;2024-03-23T04:55:18;5.60;99.90
8400;DHT22;4237;47.030;15.396;2024-03-23T04:57:46;5.70;99.90
8400;DHT22;4237;47.030;15.396;2024-03-23T05:00:15;5.70;99.90
8400;DHT22;4237;47.030;15.396;2024-03-23T05:02:46;5.70;99.90
8400;DHT22;4237;47.030;15.396;2024-03-23T05:05:15;5.90;99.90
8400;DHT22;4237;47.030;15.396;2024-03-23T05:07:43;5.90;99.90
8400;DHT22;4237;47.030;15.396;2024-03-23T05:10:12;6.00;99.90
8400;DHT22;4237;47.030;15.396;2024-03-23T05:12:41;6.90;99.90
8400;DHT22;4237;47.030;15.396;2024-03-23T05:15:09;6.10;99.90
8400;DHT22;4237;47.030;15.396;2024-03-23T05:17:38;6.20;99.90
8400;DHT22;4237;47.030;15.396;2024-03-23T05:20:07;6.30;99.90
8400;DHT22;4237;47.030;15.396;2024-03-23T05:22:37;6.40;99.90
8400;DHT22;4237;47.030;15.396;2024-03-23T05:25:05;6.50;99.90
8400;DHT22;4237;47.030;15.396;2024-03-23T05:27:34;6.90;99.90
8400;DHT22;4237;47.030;15.396;2024-03-23T05:30:04;7.10;99.90
8400;DHT22;4237;47.030;15.396;2024-03-23T05:32:33;7.30;99.90
8400;DHT22;4237;47.030;15.396;2024-03-23T05:35:02;7.30;99.90
8400;DHT22;4237;47.030;15.396;2024-03-23T05:37:30;7.30;99.90
8400;DHT22;4237;47.030;15.396;2024-03-23T05:40:01;7.60;99.90
8400;DHT22;4237;47.030;15.396;2024-03-23T05:42:31;7.90;99.90
8400;DHT22;4237;47.030;15.396;2024-03-23T05:45:00;8.40;99.90
8400;DHT22;4237;47.030;15.396;2024-03-23T05:47:28;9.00;99.90
8400;DHT22;4237;47.030;15.396;2024-03-23T05:49:57;9.20;99.90
8400;DHT22;4237;47.030;15.396;2024-03-23T05:52:25;9.20;99.90
8400;DHT22;4237;47.030;15.396;2024-03-23T05:54:54;9.20;99.90
8400;DHT22;4237;47.030;15.396;2024-03-23T05:57:23;9.20;99.90
8400;DHT22;4237;47.030;15.396;2024-03-23T05:59:51;9.10;99.90
8400;DHT22;4237;47.030;15.396;2024-03-23T06:02:20;9.70;99.90
8400;DHT22;4237;47.030;15.396;2024-03-23T06:04:48;9.10;99.90
8400;DHT22;4237;47.030;15.396;2024-03-23T06:07:17;9.10;99.90
8400;DHT22;4237;47.030;15.396;2024-03-23T06:09:45;9.20;99.90
8400;DHT22;4237;47.030;15.396;2024-03-23T06:12:14;9.40;99.90
8400;DHT22;4237;47.030;15.396;2024-03-23T06:14:43;8.80;99.90
8400;DHT22;4237;47.030;15.396;2024-03-23T06:17:11;9.80;99.90
8400;DHT22;4237;47.030;15.396;2024-03-23T06:19:41;9.90;99.90
8400;DHT22;4237;47.030;15.396;2024-03-23T06:22:09;9.60;99.90
8400;DHT22;4237;47.030;15.396;2024-03-23T06:24:38;10.80;99.90
8400;DHT22;4237;47.030;15.396;2024-03-23T06:27:06;12.10;99.90
8400;DHT22;4237;47.030;15.396;2024-03-23T06:29:35;13.50;99.90
8400;DHT22;4237;47.030;15.396;2024-03-23T06:32:04;14.00;99.90
8400;DHT22;4237;47.030;15.396;2024-03-23T06:34:32;13.90;99.90
8400;DHT22;4237;47.030;15.396;2024-03-23T06:37:01;13.80;99.90
8400;DHT22;4237;47.030;15.396;2024-03-23T06:39:30;13.80;99.90
8400;DHT22;4237;47.030;15.396;2024-03-23T06:41:59;13.40;99.90
8400;DHT22;4237;47.030;15.396;2024-03-23T06:44:27;13.10;99.90
8400;DHT22;4237;47.030;15.396;2024-03-23T06:46:57;12.90;99.90
8400;DHT22;4237;47.030;15.396;2024-03-23T06:49:25;12.70;99.90
8400;DHT22;4237;47.030;15.396;2024-03-23T06:51:54;12.80;99.90
8400;DHT22;4237;47.030;15.396;2024-03-23T06:54:24;12.60;99.90
8400;DHT22;4237;47.030;15.396;2024-03-23T06:56:53;12.30;99.90
8400;DHT22;4237;47.030;15.396;2024-03-23T06:59:21;12.60;99.90
8400;DHT22;4237;47.030;15.396;2024-03-23T07:01:50;11.80;99.90
8400;DHT22;4237;47.030;15.396;2024-03-23T07:04:19;11.80;99.90
8400;DHT22;4237;47.030;15.396;2024-03-23T07:06:47;12.00;99.90
8400;DHT22;4237;47.030;15.396;2024-03-23T07:09:16;12.00;99.90
8400;DHT22;4237;47.030;15.396;2024-03-23T07:11:44;11.90;99.90
8400;DHT22;4237;47.030;15.396;2024-03-23T07:14:13;11.80;99.90
8400;DHT22;4237;47.030;15.396;2024-03-23T07:16:42;11.90;99.90
8400;DHT22;4237;47.030;15.396;2024-03-23T07:19:10;11.70;99.90
8400;DHT22;4237;47.030;15.396;2024-03-23T07:21:39;11.60;99.90
8400;DHT22;4237;47.030;15.396;2024-03-23T07:24:07;11.60;99.90
8400;DHT22;4237;47.030;15.396;2024-03-23T07:26:36;11.40;99.90
8400;DHT22;4237;47.030;15.396;2024-03-23T07:29:07;11.50;99.90
8400;DHT22;4237;47.030;15.396;2024-03-23T07:31:35;11.50;99.90
8400;DHT22;4237;47.030;15.396;2024-03-23T07:34:04;11.70;99.90
8400;DHT22;4237;47.030;15.396;2024-03-23T07:36:33;11.50;99.90
8400;DHT22;4237;47.030;15.396;2024-03-23T07:39:02;11.40;99.90
8400;DHT22;4237;47.030;15.396;2024-03-23T07:41:31;11.40;99.90
8400;DHT22;4237;47.030;15.396;2024-03-23T07:44:00;11.30;99.90
8400;DHT22;4237;47.030;15.396;2024-03-23T07:46:28;11.40;99.90
8400;DHT22;4237;47.030;15.396;2024-03-23T07:48:57;11.50;99.90
8400;DHT22;4237;47.030;15.396;2024-03-23T07:51:25;11.50;99.90
8400;DHT22;4237;47.030;15.396;2024-03-23T07:53:54;11.70;99.90
8400;DHT22;4237;47.030;15.396;2024-03-23T07:56:22;11.80;99.90
8400;DHT22;4237;47.030;15.396;2024-03-23T07:58:51;11.90;99.90
8400;DHT22;4237;47.030;15.396;2024-03-23T08:01:20;12.00;99.90
8400;DHT22;4237;47.030;15.396;2024-03-23T08:03:50;12.20;99.90
8400;DHT22;4237;47.030;15.396;2024-03-23T08:06:19;12.40;99.90
8400;DHT22;4237;47.030;15.396;2024-03-23T08:08:52;12.80;99.90
8400;DHT22;4237;47.030;15.396;2024-03-23T08:11:22;13.00;99.90
8400;DHT22;4237;47.030;15.396;2024-03-23T08:13:51;13.00;99.90
8400;DHT22;4237;47.030;15.396;2024-03-23T08:16:19;13.10;99.90
8400;DHT22;4237;47.030;15.396;2024-03-23T08:18:48;13.40;99.90
8400;DHT22;4237;47.030;15.396;2024-03-23T08:21:16;13.60;99.90
8400;DHT22;4237;47.030;15.396;2024-03-23T08:23:45;13.70;99.90
8400;DHT22;4237;47.030;15.396;2024-03-23T08:26:15;13.60;99.90
8400;DHT22;4237;47.030;15.396;2024-03-23T08:28:46;14.00;99.90
8400;DHT22;4237;47.030;15.396;2024-03-23T08:31:15;14.40;99.90
8400;DHT22;4237;47.030;15.396;2024-03-23T08:33:44;14.80;99.90
8400;DHT22;4237;47.030;15.396;2024-03-23T08:36:12;14.70;99.90
8400;DHT22;4237;47.030;15.396;2024-03-23T08:38:41;14.80;99.90
8400;DHT22;4237;47.030;15.396;2024-03-23T08:41:11;15.30;99.90
8400;DHT22;4237;47.030;15.396;2024-03-23T08:43:41;15.90;99.90
8400;DHT22;4237;47.030;15.396;2024-03-23T08:46:11;16.50;99.90
8400;DHT22;4237;47.030;15.396;2024-03-23T08:48:41;16.70;99.90
8400;DHT22;4237;47.030;15.396;2024-03-23T08:51:14;17.20;99.90
8400;DHT22;4237;47.030;15.396;2024-03-23T08:53:43;16.20;99.90
8400;DHT22;4237;47.030;15.396;2024-03-23T08:56:12;16.00;99.90
8400;DHT22;4237;47.030;15.396;2024-03-23T08:58:41;17.10;99.90
8400;DHT22;4237;47.030;15.396;2024-03-23T09:01:11;20.30;99.90
8400;DHT22;4237;47.030;15.396;2024-03-23T09:03:43;22.80;99.90
8400;DHT22;4237;47.030;15.396;2024-03-23T09:06:14;25.40;99.90
8400;DHT22;4237;47.030;15.396;2024-03-23T09:08:42;25.10;99.10
8400;DHT22;4237;47.030;15.396;2024-03-23T09:11:12;26.00;97.90
8400;DHT22;4237;47.030;15.396;2024-03-23T09:13:41;27.60;95.70
8400;DHT22;4237;47.030;15.396;2024-03-23T09:16:09;27.10;96.00
8400;DHT22;4237;47.030;15.396;2024-03-23T09:18:38;27.50;95.30
8400;DHT22;4237;47.030;15.396;2024-03-23T09:21:13;27.30;95.10
8400;DHT22;4237;47.030;15.396;2024-03-23T09:23:44;26.30;95.80
8400;DHT22;4237;47.030;15.396;2024-03-23T09:26:12;25.30;96.90
8400;DHT22;4237;47.030;15.396;2024-03-23T09:28:41;24.30;97.60
8400;DHT22;4237;47.030;15.396;2024-03-23T09:31:10;21.50;99.90
8400;DHT22;4237;47.030;15.396;2024-03-23T09:33:40;20.50;99.90
8400;DHT22;4237;47.030;15.396;2024-03-23T09:36:09;18.70;99.90
8400;DHT22;4237;47.030;15.396;2024-03-23T09:38:38;17.60;99.90
8400;DHT22;4237;47.030;15.396;2024-03-23T09:41:10;17.00;99.90
8400;DHT22;4237;47.030;15.396;2024-03-23T09:43:39;17.10;99.90
8400;DHT22;4237;47.030;15.396;2024-03-23T09:46:08;16.70;99.90
8400;DHT22;4237;47.030;15.396;2024-03-23T09:48:37;16.60;99.90
8400;DHT22;4237;47.030;15.396;2024-03-23T09:51:05;17.10;99.90
8400;DHT22;4237;47.030;15.396;2024-03-23T09:53:37;16.80;99.90
8400;DHT22;4237;47.030;15.396;2024-03-23T09:56:07;17.10;99.90
8400;DHT22;4237;47.030;15.396;2024-03-23T09:58:36;16.60;99.90
8400;DHT22;4237;47.030;15.396;2024-03-23T10:01:05;16.40;99.90
8400;DHT22;4237;47.030;15.396;2024-03-23T10:03:47;17.50;99.90
8400;DHT22;4237;47.030;15.396;2024-03-23T10:06:11;18.20;99.90
8400;DHT22;4237;47.030;15.396;2024-03-23T10:08:40;19.20;99.90
8400;DHT22;4237;47.030;15.396;2024-03-23T10:11:15;20.60;99.90
8400;DHT22;4237;47.030;15.396;2024-03-23T10:13:44;21.40;99.90
8400;DHT22;4237;47.030;15.396;2024-03-23T10:16:24;23.60;99.90
8400;DHT22;4237;47.030;15.396;2024-03-23T10:18:54;23.00;99.90
8400;DHT22;4237;47.030;15.396;2024-03-23T10:21:22;24.30;99.90
8400;DHT22;4237;47.030;15.396;2024-03-23T10:23:51;24.80;99.90
8400;DHT22;4237;47.030;15.396;2024-03-23T10:26:24;24.40;99.90
8400;DHT22;4237;47.030;15.396;2024-03-23T10:28:58;24.20;99.90
8400;DHT22;4237;47.030;15.396;2024-03-23T10:31:34;23.90;99.90
8400;DHT22;4237;47.030;15.396;2024-03-23T10:33:59;25.30;99.90
8400;DHT22;4237;47.030;15.396;2024-03-23T10:36:29;27.10;97.70
8400;DHT22;4237;47.030;15.396;2024-03-23T10:38:59;28.20;96.60
8400;DHT22;4237;47.030;15.396;2024-03-23T10:41:28;26.20;97.60
8400;DHT22;4237;47.030;15.396;2024-03-23T10:44:01;27.90;96.50
8400;DHT22;4237;47.030;15.396;2024-03-23T10:46:30;27.50;95.90
8400;DHT22;4237;47.030;15.396;2024-03-23T10:48:59;26.40;97.10
8400;DHT22;4237;47.030;15.396;2024-03-23T10:51:28;28.30;95.80
8400;DHT22;4237;47.030;15.396;2024-03-23T10:53:57;29.80;94.40
8400;DHT22;4237;47.030;15.396;2024-03-23T10:56:28;31.20;91.30
8400;DHT22;4237;47.030;15.396;2024-03-23T10:58:58;30.50;90.60
8400;DHT22;4237;47.030;15.396;2024-03-23T11:01:27;30.50;90.30
8400;DHT22;4237;47.030;15.396;2024-03-23T11:03:55;30.10;90.50
8400;DHT22;4237;47.030;15.396;2024-03-23T11:06:37;30.70;90.10
8400;DHT22;4237;47.030;15.396;2024-03-23T11:12:17;31.40;85.00
8400;DHT22;4237;47.030;15.396;2024-03-23T11:14:38;30.00;87.30
8400;DHT22;4237;47.030;15.396;2024-03-23T11:17:11;30.30;87.20
8400;DHT22;4237;47.030;15.396;2024-03-23T11:19:40;30.70;86.90
8400;DHT22;4237;47.030;15.396;2024-03-23T11:22:08;30.90;87.20
8400;DHT22;4237;47.030;15.396;2024-03-23T11:24:37;29.70;89.30
8400;DHT22;4237;47.030;15.396;2024-03-23T11:27:16;29.20;90.20
8400;DHT22;4237;47.030;15.396;2024-03-23T11:29:44;29.80;90.10
8400;DHT22;4237;47.030;15.396;2024-03-23T11:32:13;28.90;91.00
8400;DHT22;4237;47.030;15.396;2024-03-23T11:34:42;29.70;90.10
8400;DHT22;4237;47.030;15.396;2024-03-23T11:37:10;28.50;91.00
8400;DHT22;4237;47.030;15.396;2024-03-23T11:39:39;29.70;90.80
8400;DHT22;4237;47.030;15.396;2024-03-23T11:42:07;30.20;89.40
8400;DHT22;4237;47.030;15.396;2024-03-23T11:44:36;31.40;87.90
8400;DHT22;4237;47.030;15.396;2024-03-23T11:47:08;29.20;90.30
8400;DHT22;4237;47.030;15.396;2024-03-23T11:49:38;28.80;90.80
8400;DHT22;4237;47.030;15.396;2024-03-23T11:52:08;27.00;91.90
8400;DHT22;4237;47.030;15.396;2024-03-23T11:54:37;26.70;92.20
8400;DHT22;4237;47.030;15.396;2024-03-23T11:57:07;28.10;92.00
8400;DHT22;4237;47.030;15.396;2024-03-23T11:59:40;28.80;91.20
8400;DHT22;4237;47.030;15.396;2024-03-23T12:02:10;28.10;91.40
8400;DHT22;4237;47.030;15.396;2024-03-23T12:04:40;26.80;92.30
8400;DHT22;4237;47.030;15.396;2024-03-23T12:07:13;25.00;94.50
8400;DHT22;4237;47.030;15.396;2024-03-23T12:09:42;25.50;94.60
8400;DHT22;4237;47.030;15.396;2024-03-23T12:12:15;26.30;94.10
8400;DHT22;4237;47.030;15.396;2024-03-23T12:14:44;28.20;92.40
8400;DHT22;4237;47.030;15.396;2024-03-23T12:17:14;27.50;93.30
8400;DHT22;4237;47.030;15.396;2024-03-23T12:19:44;28.50;92.40
8400;DHT22;4237;47.030;15.396;2024-03-23T12:22:13;30.00;90.60
8400;DHT22;4237;47.030;15.396;2024-03-23T12:24:42;28.70;91.70
8400;DHT22;4237;47.030;15.396;2024-03-23T12:27:12;29.10;91.50
8400;DHT22;4237;47.030;15.396;2024-03-23T12:29:42;29.10;91.00
8400;DHT22;4237;47.030;15.396;2024-03-23T12:32:14;29.60;90.80
8400;DHT22;4237;47.030;15.396;2024-03-23T12:34:43;29.70;88.90
8400;DHT22;4237;47.030;15.396;2024-03-23T12:37:12;29.10;90.30
8400;DHT22;4237;47.030;15.396;2024-03-23T12:39:41;28.30;90.50
8400;DHT22;4237;47.030;15.396;2024-03-23T12:42:09;27.50;90.80
8400;DHT22;4237;47.030;15.396;2024-03-23T12:44:38;26.80;91.30
8400;DHT22;4237;47.030;15.396;2024-03-23T12:47:06;27.30;91.50
8400;DHT22;4237;47.030;15.396;2024-03-23T12:49:35;27.90;90.90
8400;DHT22;4237;47.030;15.396;2024-03-23T12:52:03;27.60;90.80
8400;DHT22;4237;47.030;15.396;2024-03-23T12:54:34;27.90;90.40
8400;DHT22;4237;47.030;15.396;2024-03-23T12:57:02;28.40;90.30
8400;DHT22;4237;47.030;15.396;2024-03-23T12:59:31;29.90;90.00
8400;DHT22;4237;47.030;15.396;2024-03-23T13:02:01;30.70;84.80
8400;DHT22;4237;47.030;15.396;2024-03-23T13:04:30;30.50;86.70
8400;DHT22;4237;47.030;15.396;2024-03-23T13:06:59;30.40;83.70
8400;DHT22;4237;47.030;15.396;2024-03-23T13:09:27;28.60;85.70
8400;DHT22;4237;47.030;15.396;2024-03-23T13:11:56;27.70;86.20
8400;DHT22;4237;47.030;15.396;2024-03-23T13:14:24;29.10;84.70
8400;DHT22;4237;47.030;15.396;2024-03-23T13:16:53;29.40;84.30
8400;DHT22;4237;47.030;15.396;2024-03-23T13:19:22;30.50;83.90
8400;DHT22;4237;47.030;15.396;2024-03-23T13:21:53;32.30;80.20
8400;DHT22;4237;47.030;15.396;2024-03-23T13:24:23;32.10;79.40
8400;DHT22;4237;47.030;15.396;2024-03-23T13:26:52;30.60;79.60
8400;DHT22;4237;47.030;15.396;2024-03-23T13:29:21;30.50;79.10
8400;DHT22;4237;47.030;15.396;2024-03-23T13:31:51;29.60;79.90
8400;DHT22;4237;47.030;15.396;2024-03-23T13:34:21;29.60;79.70
8400;DHT22;4237;47.030;15.396;2024-03-23T13:36:49;29.10;81.60
8400;DHT22;4237;47.030;15.396;2024-03-23T13:39:18;28.70;80.10
8400;DHT22;4237;47.030;15.396;2024-03-23T13:41:46;29.90;82.00
8400;DHT22;4237;47.030;15.396;2024-03-23T13:44:15;30.80;80.40
8400;DHT22;4237;47.030;15.396;2024-03-23T13:46:43;29.60;84.40
8400;DHT22;4237;47.030;15.396;2024-03-23T13:49:31;30.10;79.20
8400;DHT22;4237;47.030;15.396;2024-03-23T13:52:03;30.40;76.80
8400;DHT22;4237;47.030;15.396;2024-03-23T13:54:32;29.50;78.80
8400;DHT22;4237;47.030;15.396;2024-03-23T13:57:01;29.00;80.30
8400;DHT22;4237;47.030;15.396;2024-03-23T13:59:30;29.50;79.10
8400;DHT22;4237;47.030;15.396;2024-03-23T14:01:58;29.00;79.20
8400;DHT22;4237;47.030;15.396;2024-03-23T14:04:27;28.30;81.20
8400;DHT22;4237;47.030;15.396;2024-03-23T14:06:56;28.20;81.10
8400;DHT22;4237;47.030;15.396;2024-03-23T14:09:24;29.30;80.30
8400;DHT22;4237;47.030;15.396;2024-03-23T14:11:53;29.70;80.00
8400;DHT22;4237;47.030;15.396;2024-03-23T14:14:22;28.60;80.20
8400;DHT22;4237;47.030;15.396;2024-03-23T14:16:50;28.60;82.60
8400;DHT22;4237;47.030;15.396;2024-03-23T14:19:19;27.80;82.70
8400;DHT22;4237;47.030;15.396;2024-03-23T14:21:47;26.10;84.60
8400;DHT22;4237;47.030;15.396;2024-03-23T14:24:16;24.50;88.30
8400;DHT22;4237;47.030;15.396;2024-03-23T14:26:44;23.80;90.20
8400;DHT22;4237;47.030;15.396;2024-03-23T14:29:13;24.00;90.70
8400;DHT22;4237;47.030;15.396;2024-03-23T14:31:42;23.60;90.40
8400;DHT22;4237;47.030;15.396;2024-03-23T14:34:10;26.10;88.40
8400;DHT22;4237;47.030;15.396;2024-03-23T14:36:39;27.30;84.70
8400;DHT22;4237;47.030;15.396;2024-03-23T14:39:07;26.80;84.30
8400;DHT22;4237;47.030;15.396;2024-03-23T14:41:36;26.00;84.70
8400;DHT22;4237;47.030;15.396;2024-03-23T14:44:05;24.90;86.80
8400;DHT22;4237;47.030;15.396;2024-03-23T14:46:33;23.50;90.20
8400;DHT22;4237;47.030;15.396;2024-03-23T14:49:02;23.70;89.80
8400;DHT22;4237;47.030;15.396;2024-03-23T14:51:30;24.20;90.00
8400;DHT22;4237;47.030;15.396;2024-03-23T14:54:00;23.80;90.30
8400;DHT22;4237;47.030;15.396;2024-03-23T14:56:29;23.60;90.40
8400;DHT22;4237;47.030;15.396;2024-03-23T14:58:57;23.20;90.80
8400;DHT22;4237;47.030;15.396;2024-03-23T15:01:26;22.50;91.80
8400;DHT22;4237;47.030;15.396;2024-03-23T15:03:55;22.40;91.70
8400;DHT22;4237;47.030;15.396;2024-03-23T15:06:23;21.90;92.20
8400;DHT22;4237;47.030;15.396;2024-03-23T15:08:52;21.60;92.60
8400;DHT22;4237;47.030;15.396;2024-03-23T15:11:21;21.80;92.30
8400;DHT22;4237;47.030;15.396;2024-03-23T15:13:50;21.70;93.00
8400;DHT22;4237;47.030;15.396;2024-03-23T15:16:19;21.80;93.30
8400;DHT22;4237;47.030;15.396;2024-03-23T15:18:50;21.50;93.30
8400;DHT22;4237;47.030;15.396;2024-03-23T15:21:19;21.30;94.30
8400;DHT22;4237;47.030;15.396;2024-03-23T15:23:50;20.90;97.70
8400;DHT22;4237;47.030;15.396;2024-03-23T15:26:18;19.90;99.40
8400;DHT22;4237;47.030;15.396;2024-03-23T15:28:50;19.00;99.90
8400;DHT22;4237;47.030;15.396;2024-03-23T15:31:26;18.10;99.90
8400;DHT22;4237;47.030;15.396;2024-03-23T15:33:55;17.30;99.90
8400;DHT22;4237;47.030;15.396;2024-03-23T15:36:24;16.60;99.90
8400;DHT22;4237;47.030;15.396;2024-03-23T15:38:52;15.90;99.90
8400;DHT22;4237;47.030;15.396;2024-03-23T15:41:22;15.20;99.90
8400;DHT22;4237;47.030;15.396;2024-03-23T15:43:52;14.80;99.90
8400;DHT22;4237;47.030;15.396;2024-03-23T15:46:21;14.40;99.90
8400;DHT22;4237;47.030;15.396;2024-03-23T15:48:49;14.20;99.90
8400;DHT22;4237;47.030;15.396;2024-03-23T15:51:18;13.80;99.90
8400;DHT22;4237;47.030;15.396;2024-03-23T15:53:47;13.50;99.90
8400;DHT22;4237;47.030;15.396;2024-03-23T15:56:16;13.30;99.90
8400;DHT22;4237;47.030;15.396;2024-03-23T15:58:44;13.10;99.90
8400;DHT22;4237;47.030;15.396;2024-03-23T16:01:14;12.80;99.90
8400;DHT22;4237;47.030;15.396;2024-03-23T16:03:42;12.40;99.90
8400;DHT22;4237;47.030;15.396;2024-03-23T16:06:11;11.90;99.90
8400;DHT22;4237;47.030;15.396;2024-03-23T16:08:39;11.60;99.90
8400;DHT22;4237;47.030;15.396;2024-03-23T16:11:09;11.30;99.90
8400;DHT22;4237;47.030;15.396;2024-03-23T16:13:37;11.00;99.90
8400;DHT22;4237;47.030;15.396;2024-03-23T16:16:08;10.60;99.90
8400;DHT22;4237;47.030;15.396;2024-03-23T16:18:38;10.40;99.90
8400;DHT22;4237;47.030;15.396;2024-03-23T16:21:12;10.20;99.90
8400;DHT22;4237;47.030;15.396;2024-03-23T16:23:41;9.90;99.90
8400;DHT22;4237;47.030;15.396;2024-03-23T16:26:11;9.80;99.90
8400;DHT22;4237;47.030;15.396;2024-03-23T16:28:40;9.70;99.90
8400;DHT22;4237;47.030;15.396;2024-03-23T16:31:09;9.60;99.90
8400;DHT22;4237;47.030;15.396;2024-03-23T16:33:38;9.30;99.90
8400;DHT22;4237;47.030;15.396;2024-03-23T16:36:08;9.20;99.90
8400;DHT22;4237;47.030;15.396;2024-03-23T16:38:37;9.00;99.90
8400;DHT22;4237;47.030;15.396;2024-03-23T16:41:08;8.70;99.90
8400;DHT22;4237;47.030;15.396;2024-03-23T16:43:36;8.50;99.90
8400;DHT22;4237;47.030;15.396;2024-03-23T16:46:16;8.30;99.90
8400;DHT22;4237;47.030;15.396;2024-03-23T16:48:43;8.20;99.90
8400;DHT22;4237;47.030;15.396;2024-03-23T16:51:13;8.10;99.90
8400;DHT22;4237;47.030;15.396;2024-03-23T16:53:41;7.90;99.90
8400;DHT22;4237;47.030;15.396;2024-03-23T16:56:11;7.80;99.90
8400;DHT22;4237;47.030;15.396;2024-03-23T16:58:41;7.60;99.90
8400;DHT22;4237;47.030;15.396;2024-03-23T17:01:12;7.60;99.90